Time;durP1;ratioP1;P1;durP2;ratioP2;P2;SDS_P1;SDS_P2;PMS_P1;PMS_P2;Temp;Humidity;BMP_temperature;BMP_pressure;BME280_temperature;BME280_humidity;BME280_pressure;Samples;Min_cycle;Max_cycle;Signal;HPM_P1;HPM_P2
2022/04/18 00:02:02;;;;;;;11.43;10.27;;;10.70;71.60;;;;;;5092648;28;20234;-66
2022/04/18 00:04:29;;;;;;;11.52;9.85;;;10.70;71.60;;;;;;5088794;28;20230;-65
2022/04/18 00:06:56;;;;;;;10.93;9.93;;;10.70;71.60;;;;;;5092768;28;20242;-65
2022/04/18 00:09:23;;;;;;;11.70;9.80;;;10.70;71.70;;;;;;5092227;28;20223;-65
2022/04/18 00:11:49;;;;;;;13.35;9.73;;;10.70;71.80;;;;;;5092387;28;20246;-65
2022/04/18 00:14:16;;;;;;;10.57;9.38;;;10.70;71.90;;;;;;5092096;28;20235;-65
2022/04/18 00:16:44;;;;;;;10.25;9.23;;;10.60;72.30;;;;;;5092368;28;20581;-65
2022/04/18 00:19:11;;;;;;;11.27;10.07;;;10.60;72.50;;;;;;5091998;28;20223;-65
2022/04/18 00:21:38;;;;;;;10.82;9.60;;;10.60;72.50;;;;;;5092216;28;20581;-65
2022/04/18 00:24:06;;;;;;;10.95;9.85;;;10.60;72.50;;;;;;5089892;28;20226;-65
2022/04/18 00:26:32;;;;;;;11.15;9.80;;;10.60;72.90;;;;;;5086239;28;20228;-65
2022/04/18 00:28:59;;;;;;;15.50;11.05;;;10.50;73.00;;;;;;5094381;28;20243;-65
2022/04/18 00:31:26;;;;;;;12.05;10.70;;;10.50;73.50;;;;;;5094324;28;20226;-65
2022/04/18 00:33:54;;;;;;;10.80;9.75;;;10.40;73.70;;;;;;5096593;28;20566;-65
2022/04/18 00:36:21;;;;;;;10.30;9.27;;;10.40;73.70;;;;;;5096195;28;20215;-65
2022/04/18 00:38:48;;;;;;;11.38;10.25;;;10.30;74.00;;;;;;5095761;28;20215;-65
2022/04/18 00:41:14;;;;;;;10.95;9.95;;;10.30;74.30;;;;;;5096400;28;20234;-64
2022/04/18 00:43:43;;;;;;;13.55;9.68;;;10.40;74.30;;;;;;5095120;28;20665;-65
2022/04/18 00:46:11;;;;;;;11.43;10.30;;;10.40;74.30;;;;;;5096261;28;20223;-65
2022/04/18 00:48:39;;;;;;;11.52;10.43;;;10.30;74.30;;;;;;5095673;28;20234;-65
2022/04/18 00:51:10;;;;;;;10.98;9.88;;;10.30;74.70;;;;;;5096008;28;20238;-65
2022/04/18 00:53:39;;;;;;;12.02;10.88;;;10.30;74.80;;;;;;5095719;28;20247;-65
2022/04/18 00:56:06;;;;;;;12.93;10.75;;;10.20;74.80;;;;;;5096085;28;20679;-64
2022/04/18 00:58:34;;;;;;;11.95;10.82;;;10.20;75.10;;;;;;5095524;28;20258;-65
2022/04/18 01:01:01;;;;;;;13.32;11.73;;;10.20;75.40;;;;;;5095835;28;20314;-64
2022/04/18 01:03:30;;;;;;;13.25;11.90;;;10.20;75.50;;;;;;5091922;28;20230;-65
2022/04/18 01:05:58;;;;;;;14.60;12.30;;;10.10;75.40;;;;;;5095667;28;20316;-65
2022/04/18 01:08:27;;;;;;;13.27;11.88;;;10.10;75.70;;;;;;5091923;28;20219;-65
2022/04/18 01:10:54;;;;;;;14.30;12.35;;;10.10;75.90;;;;;;5092637;28;20236;-65
2022/04/18 01:13:24;;;;;;;13.00;11.60;;;10.10;76.00;;;;;;5095718;28;20270;-65
2022/04/18 01:15:53;;;;;;;13.13;11.80;;;10.10;76.50;;;;;;5095409;28;20215;-65
2022/04/18 01:18:20;;;;;;;17.30;13.10;;;10.10;76.50;;;;;;5095623;28;20231;-65
2022/04/18 01:20:49;;;;;;;17.25;13.80;;;10.00;76.40;;;;;;5094923;28;20585;-65
2022/04/18 01:23:21;;;;;;;16.60;14.18;;;10.00;76.60;;;;;;5092675;28;20216;-65
2022/04/18 01:31:17;;;;;;;14.18;12.77;;;9.90;78.30;;;;;;5085498;28;20253;-65
2022/04/18 01:33:44;;;;;;;15.80;14.20;;;9.80;78.40;;;;;;5094367;28;20223;-65
2022/04/18 01:36:12;;;;;;;13.60;12.20;;;9.80;78.90;;;;;;5095080;28;20219;-65
2022/04/18 01:38:39;;;;;;;16.20;13.73;;;9.80;79.10;;;;;;5094202;28;20223;-65
2022/04/18 01:41:05;;;;;;;16.13;13.50;;;9.70;79.50;;;;;;5094626;28;20227;-65
2022/04/18 01:43:32;;;;;;;15.43;13.98;;;9.70;79.70;;;;;;5094700;28;20223;-65
2022/04/18 01:45:59;;;;;;;14.15;12.75;;;9.70;80.20;;;;;;5095232;28;20231;-64
2022/04/18 01:48:26;;;;;;;13.07;11.88;;;9.70;80.20;;;;;;5094905;28;20226;-65
2022/04/18 01:50:53;;;;;;;16.23;12.68;;;9.70;80.20;;;;;;5094426;28;20669;-65
2022/04/18 01:53:21;;;;;;;15.35;13.85;;;9.70;80.40;;;;;;5094998;28;20226;-65
2022/04/18 01:55:48;;;;;;;12.75;11.40;;;9.70;80.50;;;;;;5094577;28;20315;-65
2022/04/18 01:58:15;;;;;;;12.65;11.32;;;9.70;81.00;;;;;;5094717;28;20232;-65
2022/04/18 02:00:41;;;;;;;13.35;11.38;;;9.70;81.10;;;;;;5094387;28;20251;-65
2022/04/18 02:03:08;;;;;;;13.48;12.07;;;9.70;81.30;;;;;;5089249;28;20224;-65
2022/04/18 02:05:35;;;;;;;11.50;10.30;;;9.70;81.50;;;;;;5094421;28;20315;-65
2022/04/18 02:08:03;;;;;;;12.85;10.68;;;9.70;81.70;;;;;;5094239;28;20232;-65
2022/04/18 02:10:31;;;;;;;13.63;12.20;;;9.60;82.80;;;;;;5093967;28;20306;-66
2022/04/18 02:12:59;;;;;;;13.40;12.20;;;9.60;82.30;;;;;;5094022;28;20228;-66
2022/04/18 02:15:25;;;;;;;12.98;11.52;;;9.60;82.30;;;;;;5094335;27;20704;-66
2022/04/18 02:17:52;;;;;;;12.00;10.88;;;9.60;82.60;;;;;;5093945;28;20220;-65
2022/04/18 02:20:19;;;;;;;12.40;10.32;;;9.50;82.50;;;;;;5094393;28;20669;-65
2022/04/18 02:22:46;;;;;;;13.35;10.40;;;9.50;82.60;;;;;;5090455;28;20216;-65
2022/04/18 02:25:13;;;;;;;12.05;10.73;;;9.60;82.90;;;;;;5094312;28;20317;-65
2022/04/18 02:27:41;;;;;;;13.25;11.10;;;9.50;82.90;;;;;;5090143;28;20230;-65
2022/04/18 02:30:09;;;;;;;10.68;9.57;;;9.50;82.90;;;;;;5093810;28;20232;-65
2022/04/18 02:32:48;;;;;;;11.40;10.07;;;9.50;82.90;;;;;;5093228;28;20253;-65
2022/04/18 02:35:15;;;;;;;10.10;9.10;;;9.40;83.10;;;;;;5094264;28;20227;-65
2022/04/18 02:37:42;;;;;;;11.20;10.10;;;9.40;83.20;;;;;;5093900;28;20280;-65
2022/04/18 02:40:10;;;;;;;10.75;9.65;;;9.40;83.10;;;;;;5093982;28;20219;-65
2022/04/18 02:42:37;;;;;;;11.43;10.32;;;9.40;83.20;;;;;;5092194;28;20243;-65
2022/04/18 02:45:06;;;;;;;15.77;13.20;;;9.40;83.40;;;;;;5093893;28;20236;-65
2022/04/18 02:47:33;;;;;;;15.48;14.02;;;9.30;83.60;;;;;;5093463;28;20238;-65
2022/04/18 02:50:00;;;;;;;14.45;12.82;;;9.20;84.10;;;;;;5092840;28;20227;-65
2022/04/18 02:52:27;;;;;;;15.80;14.02;;;9.20;84.50;;;;;;5093671;28;20231;-65
2022/04/18 02:54:54;;;;;;;18.15;14.98;;;9.10;84.70;;;;;;5093103;28;20234;-65
2022/04/18 02:57:21;;;;;;;17.73;15.88;;;9.10;85.10;;;;;;5093700;28;20306;-65
2022/04/18 02:59:47;;;;;;;18.08;16.33;;;9.00;85.30;;;;;;5093123;28;20227;-65
2022/04/18 03:02:16;;;;;;;18.98;16.88;;;9.00;85.50;;;;;;5093467;28;20673;-65
2022/04/18 03:04:42;;;;;;;18.55;16.67;;;9.00;85.80;;;;;;5084690;28;20231;-65
2022/04/18 03:07:09;;;;;;;17.20;15.60;;;8.90;85.80;;;;;;5093080;28;20223;-65
2022/04/18 03:09:36;;;;;;;19.73;15.48;;;8.90;85.80;;;;;;5091422;28;20684;-65
2022/04/18 03:12:03;;;;;;;15.32;13.82;;;8.90;86.20;;;;;;5081360;28;20231;-65
2022/04/18 03:14:30;;;;;;;18.13;14.43;;;8.80;86.60;;;;;;5092244;28;20220;-65
2022/04/18 03:16:57;;;;;;;14.30;12.65;;;8.80;86.80;;;;;;5092098;28;20229;-65
2022/04/18 03:19:25;;;;;;;14.07;12.45;;;8.80;87.00;;;;;;5092479;28;20231;-65
2022/04/18 03:21:52;;;;;;;12.00;10.82;;;8.70;87.00;;;;;;5091921;28;20569;-64
2022/04/18 03:24:19;;;;;;;12.95;11.50;;;8.70;87.80;;;;;;5091514;28;20215;-65
2022/04/18 03:26:46;;;;;;;14.10;12.40;;;8.70;87.10;;;;;;5091566;28;20219;-65
2022/04/18 03:29:13;;;;;;;13.57;12.18;;;8.60;87.30;;;;;;5085166;28;20277;-65
2022/04/18 03:31:40;;;;;;;12.15;10.95;;;8.60;87.60;;;;;;5087861;28;20535;-65
2022/04/18 03:34:07;;;;;;;14.02;10.18;;;8.60;87.80;;;;;;5092979;28;20220;-65
2022/04/18 03:42:04;;;;;;;12.15;9.68;;;8.50;88.10;;;;;;5086082;28;20226;-65
2022/04/18 03:44:31;;;;;;;12.15;10.95;;;8.40;88.40;;;;;;5092550;28;20681;-64
2022/04/18 03:46:58;;;;;;;12.75;10.35;;;8.40;88.70;;;;;;5091874;28;20569;-65
2022/04/18 03:49:25;;;;;;;12.63;9.63;;;8.40;88.70;;;;;;5091226;28;20219;-64
2022/04/18 03:51:53;;;;;;;11.52;9.15;;;8.40;88.80;;;;;;5092725;28;20236;-64
2022/04/18 03:54:20;;;;;;;12.57;10.77;;;8.30;88.90;;;;;;5092423;28;20223;-65
2022/04/18 03:56:47;;;;;;;11.10;9.50;;;8.30;89.30;;;;;;5092686;28;20219;-65
2022/04/18 03:59:14;;;;;;;11.10;9.05;;;8.20;89.40;;;;;;5092734;28;20235;-65
2022/04/18 04:01:41;;;;;;;11.27;8.43;;;8.20;89.30;;;;;;5091798;28;20682;-65
2022/04/18 04:04:08;;;;;;;9.73;8.73;;;8.30;89.40;;;;;;5092589;28;20247;-65
2022/04/18 04:06:35;;;;;;;11.10;9.98;;;8.30;89.50;;;;;;5091786;28;20227;-65
2022/04/18 04:09:03;;;;;;;11.13;10.02;;;8.20;89.20;;;;;;5092382;28;20689;-65
2022/04/18 04:11:33;;;;;;;9.35;8.30;;;8.20;89.40;;;;;;5092198;28;20231;-64
2022/04/18 04:14:00;;;;;;;10.30;9.30;;;8.20;89.20;;;;;;5092794;28;20301;-65
2022/04/18 04:16:27;;;;;;;9.63;8.52;;;8.20;89.10;;;;;;5092127;28;20219;-65
2022/04/18 04:18:54;;;;;;;8.30;7.15;;;8.20;90.00;;;;;;5092739;28;20223;-65
2022/04/18 04:21:20;;;;;;;11.68;9.05;;;8.20;89.20;;;;;;5092325;28;20231;-65
2022/04/18 04:23:47;;;;;;;10.60;8.10;;;8.20;89.20;;;;;;5092286;28;20219;-65
2022/04/18 04:26:15;;;;;;;12.43;9.30;;;8.20;89.20;;;;;;5092992;28;20560;-65
2022/04/18 04:28:42;;;;;;;12.75;8.52;;;8.10;88.60;;;;;;5092062;28;20234;-64
2022/04/18 04:31:09;;;;;;;10.43;8.65;;;8.00;88.70;;;;;;5092405;28;20227;-66
2022/04/18 04:33:36;;;;;;;9.75;8.65;;;8.00;89.00;;;;;;5092224;28;20214;-64
2022/04/18 04:36:02;;;;;;;9.30;8.30;;;7.90;88.60;;;;;;5092584;28;20222;-64
2022/04/18 04:38:29;;;;;;;10.73;8.70;;;7.90;89.00;;;;;;5092132;28;20689;-65
2022/04/18 04:40:58;;;;;;;10.23;8.98;;;7.80;89.60;;;;;;5092445;28;20230;-65
2022/04/18 04:43:28;;;;;;;11.57;9.50;;;7.80;89.80;;;;;;5092238;28;20219;-63
2022/04/18 04:45:55;;;;;;;11.20;8.68;;;7.70;90.10;;;;;;5092791;28;20310;-64
2022/04/18 04:48:22;;;;;;;11.02;9.20;;;7.70;90.30;;;;;;5091942;28;20227;-64
2022/04/18 04:50:49;;;;;;;12.00;8.75;;;7.60;90.40;;;;;;5092337;28;20223;-64
2022/04/18 04:53:16;;;;;;;12.40;8.45;;;7.60;90.90;;;;;;5092334;28;20220;-64
2022/04/18 04:55:43;;;;;;;11.20;9.52;;;7.60;90.70;;;;;;5092249;28;20219;-65
2022/04/18 04:58:10;;;;;;;12.15;8.75;;;7.60;90.80;;;;;;5092255;28;20228;-65
2022/04/18 05:00:38;;;;;;;14.18;10.07;;;7.60;90.90;;;;;;5091695;28;20231;-65
2022/04/18 05:03:06;;;;;;;12.57;9.60;;;7.60;90.90;;;;;;5092247;28;20216;-65
2022/04/18 05:05:33;;;;;;;11.70;9.60;;;7.50;91.20;;;;;;5091831;28;20234;-65
2022/04/18 05:08:00;;;;;;;14.55;11.00;;;7.50;91.30;;;;;;5092107;28;20235;-65
2022/04/18 05:10:28;;;;;;;12.02;10.80;;;7.60;91.40;;;;;;5091877;28;20227;-64
2022/04/18 05:12:55;;;;;;;13.63;10.48;;;7.60;91.50;;;;;;5094171;28;20246;-65
2022/04/18 05:15:21;;;;;;;13.73;10.07;;;7.50;91.60;;;;;;5095893;28;20227;-64
2022/04/18 05:17:49;;;;;;;12.73;10.02;;;7.50;91.70;;;;;;5095400;28;20216;-64
2022/04/18 05:20:16;;;;;;;12.15;9.05;;;7.60;91.80;;;;;;5095842;28;20233;-65
2022/04/18 05:22:43;;;;;;;15.35;10.75;;;7.60;91.80;;;;;;5095355;28;20269;-65
2022/04/18 05:25:10;;;;;;;16.05;10.63;;;7.70;91.90;;;;;;5095511;28;20223;-66
2022/04/18 05:27:38;;;;;;;12.43;10.85;;;7.70;91.80;;;;;;5095048;28;20216;-65
2022/04/18 05:30:06;;;;;;;13.15;11.18;;;7.70;91.80;;;;;;5095943;28;20712;-65
2022/04/18 05:32:33;;;;;;;14.40;12.30;;;7.80;91.80;;;;;;5094773;28;20235;-65
2022/04/18 05:35:01;;;;;;;14.45;11.73;;;7.80;91.80;;;;;;5095408;28;20227;-64
2022/04/18 05:37:28;;;;;;;14.23;11.50;;;7.90;91.90;;;;;;5095121;28;20221;-65
2022/04/18 05:39:55;;;;;;;16.17;11.82;;;7.90;91.90;;;;;;5095558;28;20223;-66
2022/04/18 05:42:24;;;;;;;15.32;10.63;;;7.90;91.90;;;;;;5095282;28;20228;-65
2022/04/18 05:44:51;;;;;;;16.75;10.38;;;7.90;92.00;;;;;;5095099;28;20268;-64
2022/04/18 05:47:18;;;;;;;16.45;10.90;;;8.00;92.00;;;;;;5095235;28;20231;-65
2022/04/18 05:49:45;;;;;;;12.63;10.40;;;8.10;92.00;;;;;;5094770;28;20677;-65
2022/04/18 05:52:15;;;;;;;16.00;11.40;;;8.10;92.10;;;;;;5095347;28;20696;-65
2022/04/18 05:54:42;;;;;;;12.63;10.45;;;8.10;92.10;;;;;;5074517;28;20266;-65
2022/04/18 05:57:09;;;;;;;16.67;11.82;;;8.20;92.10;;;;;;5074653;28;20294;-66
2022/04/18 05:59:35;;;;;;;14.90;10.90;;;8.20;92.10;;;;;;5074550;28;20594;-65
2022/04/18 06:02:02;;;;;;;15.27;10.93;;;8.30;92.10;;;;;;5074524;28;20231;-65
2022/04/18 06:04:29;;;;;;;17.67;13.85;;;8.40;92.00;;;;;;5074370;28;20224;-64
2022/04/18 06:06:56;;;;;;;15.77;12.52;;;8.40;91.90;;;;;;5074696;28;20226;-64
2022/04/18 06:09:24;;;;;;;16.92;11.43;;;8.50;91.90;;;;;;5074628;28;20224;-64
2022/04/18 06:11:51;;;;;;;14.75;12.07;;;8.60;92.00;;;;;;5074308;28;20227;-65
2022/04/18 06:14:18;;;;;;;14.32;11.73;;;8.60;92.00;;;;;;5087293;28;20280;-65
2022/04/18 06:16:45;;;;;;;21.30;13.10;;;8.70;92.00;;;;;;5094146;28;20612;-65
2022/04/18 06:19:12;;;;;;;14.93;11.57;;;8.80;91.90;;;;;;5094780;28;20234;-64
2022/04/18 06:21:38;;;;;;;16.75;12.65;;;8.90;91.90;;;;;;5094207;28;20234;-65
2022/04/18 06:24:05;;;;;;;15.43;11.68;;;9.00;91.90;;;;;;5094330;28;20656;-64
2022/04/18 06:26:33;;;;;;;16.58;13.13;;;9.00;91.70;;;;;;5094358;28;20251;-65
2022/04/18 06:29:00;;;;;;;16.25;12.20;;;9.10;91.60;;;;;;5094281;28;20306;-65
2022/04/18 06:31:27;;;;;;;16.55;11.50;;;9.20;91.50;;;;;;5094297;28;20232;-65
2022/04/18 06:33:54;;;;;;;16.58;12.85;;;9.30;91.30;;;;;;5094028;28;20230;-65
2022/04/18 06:36:21;;;;;;;15.27;11.45;;;9.40;91.30;;;;;;5094370;28;20219;-64
2022/04/18 06:38:48;;;;;;;12.85;10.82;;;9.40;91.20;;;;;;5093731;28;20250;-65
2022/04/18 06:41:15;;;;;;;14.75;11.75;;;9.50;91.00;;;;;;5094200;28;20223;-63
2022/04/18 06:43:43;;;;;;;16.75;11.82;;;9.60;91.00;;;;;;5093777;28;20242;-65
2022/04/18 06:46:10;;;;;;;14.77;11.00;;;9.70;90.80;;;;;;5093945;28;20227;-65
2022/04/18 06:48:37;;;;;;;17.35;11.75;;;9.80;90.60;;;;;;5093890;28;20224;-65
2022/04/18 06:51:03;;;;;;;14.95;12.00;;;9.90;90.40;;;;;;5093896;28;20231;-64
2022/04/18 06:53:30;;;;;;;11.73;9.98;;;9.90;90.30;;;;;;5093935;28;20594;-65
2022/04/18 06:58:43;;;;;;;11.75;9.70;;;10.10;89.10;;;;;;5093451;28;20238;-65
2022/04/18 07:01:10;;;;;;;12.65;9.65;;;10.10;88.90;;;;;;5093568;28;20223;-65
2022/04/18 07:03:36;;;;;;;14.73;11.38;;;10.20;88.50;;;;;;5093473;28;20224;-63
2022/04/18 07:06:03;;;;;;;11.90;10.32;;;10.30;88.50;;;;;;5093665;28;20284;-65
2022/04/18 07:08:30;;;;;;;12.60;8.85;;;10.40;88.60;;;;;;5093659;28;20239;-65
2022/04/18 07:10:57;;;;;;;13.68;10.45;;;10.50;88.60;;;;;;5093225;28;20231;-64
2022/04/18 07:13:24;;;;;;;10.55;8.98;;;10.60;88.30;;;;;;5093536;28;20215;-65
2022/04/18 07:15:53;;;;;;;9.95;8.68;;;10.70;87.90;;;;;;5093382;28;20611;-64
2022/04/18 07:18:20;;;;;;;8.90;8.00;;;10.80;87.50;;;;;;5093622;28;20224;-65
2022/04/18 07:20:47;;;;;;;12.00;9.35;;;10.90;87.50;;;;;;5093056;28;20234;-65
2022/04/18 07:23:14;;;;;;;11.60;8.18;;;11.00;87.30;;;;;;5093407;28;20219;-64
2022/04/18 07:25:41;;;;;;;8.65;7.85;;;11.10;86.90;;;;;;5092859;28;20224;-64
2022/04/18 07:28:08;;;;;;;8.93;8.02;;;11.20;86.60;;;;;;5093338;28;20238;-65
2022/04/18 07:30:34;;;;;;;9.68;8.60;;;11.20;86.20;;;;;;5093134;28;20235;-66
2022/04/18 07:33:03;;;;;;;14.43;7.90;;;11.30;86.50;;;;;;5092930;28;20230;-65
2022/04/18 07:35:29;;;;;;;9.75;8.43;;;11.40;85.00;;;;;;5092710;28;20234;-65
2022/04/18 07:40:42;;;;;;;8.68;6.97;;;11.50;83.70;;;;;;5092818;28;20238;-64
2022/04/18 07:43:09;;;;;;;9.73;7.25;;;11.60;83.70;;;;;;5093230;28;20223;-65
2022/04/18 07:45:37;;;;;;;8.50;6.90;;;11.70;83.30;;;;;;5093037;28;20215;-66
2022/04/18 07:48:07;;;;;;;7.55;6.85;;;11.80;82.10;;;;;;5092809;28;20284;-66
2022/04/18 07:53:18;;;;;;;6.80;6.15;;;12.00;80.40;;;;;;5093508;28;20230;-66
2022/04/18 07:55:45;;;;;;;5.85;5.35;;;12.10;80.20;;;;;;5092627;28;20215;-65
2022/04/18 07:58:12;;;;;;;7.13;5.25;;;12.20;80.20;;;;;;5092964;28;20223;-65
2022/04/18 08:00:39;;;;;;;6.50;5.82;;;12.20;77.70;;;;;;5092321;28;20565;-65
2022/04/18 08:03:07;;;;;;;6.10;5.32;;;12.20;77.80;;;;;;5092816;28;20235;-65
2022/04/18 08:05:34;;;;;;;6.65;5.95;;;12.30;77.60;;;;;;5092612;28;20219;-65
2022/04/18 08:08:01;;;;;;;6.30;5.70;;;12.40;77.30;;;;;;5092846;28;20227;-65
2022/04/18 08:10:28;;;;;;;7.65;5.57;;;12.50;77.00;;;;;;5092092;28;20677;-64
2022/04/18 08:12:55;;;;;;;5.72;4.78;;;12.50;76.10;;;;;;5092846;28;20311;-65
2022/04/18 08:15:22;;;;;;;5.15;4.15;;;12.60;76.20;;;;;;5092359;28;20348;-65
2022/04/18 08:17:49;;;;;;;5.03;4.45;;;12.70;75.70;;;;;;5092554;28;20226;-65
2022/04/18 08:20:17;;;;;;;5.63;4.68;;;12.80;74.80;;;;;;5092829;28;20231;-64
2022/04/18 08:22:44;;;;;;;5.25;4.75;;;12.90;74.50;;;;;;5092099;28;20223;-65
2022/04/18 08:25:11;;;;;;;6.30;5.30;;;13.00;73.90;;;;;;5092841;28;20234;-65
2022/04/18 08:27:37;;;;;;;5.90;5.03;;;13.10;73.80;;;;;;5092097;28;20230;-65
2022/04/18 08:30:05;;;;;;;5.85;5.35;;;13.20;73.60;;;;;;5092613;28;20219;-65
2022/04/18 08:32:36;;;;;;;9.20;6.30;;;13.30;73.20;;;;;;5092029;28;20231;-65
2022/04/18 08:35:03;;;;;;;4.43;4.03;;;13.30;71.90;;;;;;5092566;28;20677;-65
2022/04/18 08:37:31;;;;;;;6.35;5.55;;;13.40;72.00;;;;;;5091996;28;20360;-64
2022/04/18 08:39:58;;;;;;;6.32;5.40;;;13.40;71.00;;;;;;5092621;28;20223;-65
2022/04/18 08:42:26;;;;;;;5.30;4.55;;;13.50;70.90;;;;;;5092055;28;20227;-65
2022/04/18 08:44:54;;;;;;;6.93;5.05;;;13.60;71.10;;;;;;5092305;28;20700;-65
2022/04/18 08:52:52;;;;;;;4.53;3.80;;;13.90;69.90;;;;;;5096403;28;20764;-64
2022/04/18 08:55:19;;;;;;;5.13;4.63;;;14.00;69.00;;;;;;5095722;28;20234;-63
2022/04/18 08:57:45;;;;;;;5.13;3.65;;;14.00;68.60;;;;;;5096036;28;20815;-64
2022/04/18 09:00:13;;;;;;;3.50;3.20;;;14.10;68.00;;;;;;5095871;28;20223;-64
2022/04/18 09:02:40;;;;;;;5.40;3.85;;;14.10;65.10;;;;;;5095942;28;20227;-65
2022/04/18 09:05:10;;;;;;;4.60;3.70;;;14.10;64.70;;;;;;5095674;28;20224;-65
2022/04/18 09:07:38;;;;;;;3.58;3.25;;;14.20;63.50;;;;;;5096322;28;20457;-65
2022/04/18 09:10:07;;;;;;;4.30;3.30;;;14.30;63.40;;;;;;5095995;28;20233;-65
2022/04/18 09:12:34;;;;;;;4.10;3.80;;;14.30;64.20;;;;;;5095764;28;20453;-65
2022/04/18 09:15:01;;;;;;;4.27;3.87;;;14.40;64.10;;;;;;5095869;28;20223;-65
2022/04/18 09:17:29;;;;;;;6.47;4.00;;;14.40;64.20;;;;;;5095336;28;20472;-64
2022/04/18 09:20:10;;;;;;;3.90;2.90;;;14.60;64.10;;;;;;5096042;28;20959;-65
2022/04/18 09:22:43;;;;;;;4.70;4.30;;;14.50;62.00;;;;;;5095424;28;20479;-64
2022/04/18 09:25:16;;;;;;;3.60;3.30;;;14.60;61.10;;;;;;5095657;28;20465;-65
2022/04/18 09:27:53;;;;;;;2.87;2.67;;;14.50;60.60;;;;;;5095345;28;20222;-65
2022/04/18 09:30:19;;;;;;;4.90;3.10;;;14.30;59.00;;;;;;5095061;28;20457;-65
2022/04/18 09:32:56;;;;;;;3.38;3.08;;;14.30;59.50;;;;;;5095645;28;20219;-65
2022/04/18 09:35:25;;;;;;;4.00;3.10;;;14.30;59.60;;;;;;5095025;28;20234;-64
2022/04/18 09:37:53;;;;;;;4.10;2.77;;;14.40;59.60;;;;;;5095627;28;20677;-66
2022/04/18 09:40:24;;;;;;;3.67;3.33;;;14.60;59.60;;;;;;5094885;28;20462;-65
2022/04/18 09:42:53;;;;;;;2.63;2.43;;;14.60;58.70;;;;;;5095576;28;20476;-66
2022/04/18 09:45:20;;;;;;;3.20;2.90;;;14.70;59.00;;;;;;5095125;28;20470;-65
2022/04/18 09:47:54;;;;;;;3.10;2.80;;;14.70;58.70;;;;;;5095279;28;20457;-65
2022/04/18 09:53:08;;;;;;;3.30;2.73;;;14.70;58.70;;;;;;5095430;28;20798;-66
2022/04/18 09:55:36;;;;;;;3.33;3.00;;;14.70;58.70;;;;;;5094688;28;20480;-65
2022/04/18 09:58:03;;;;;;;3.70;3.40;;;14.70;58.70;;;;;;5094533;28;20474;-64
2022/04/18 10:00:31;;;;;;;5.00;3.63;;;14.80;58.30;;;;;;5094624;28;20461;-64
2022/04/18 10:02:58;;;;;;;3.93;3.30;;;14.80;58.50;;;;;;5094953;28;20469;-63
2022/04/18 10:05:28;;;;;;;3.27;2.83;;;14.80;58.50;;;;;;5094686;28;20538;-64
2022/04/18 10:07:56;;;;;;;5.43;3.13;;;14.80;57.60;;;;;;5095099;28;20510;-64
2022/04/18 10:10:23;;;;;;;3.10;2.87;;;14.90;58.00;;;;;;5094285;28;20474;-64
2022/04/18 10:12:52;;;;;;;3.90;3.47;;;14.90;58.30;;;;;;5094769;28;20450;-64
2022/04/18 10:15:18;;;;;;;2.97;2.70;;;15.00;58.40;;;;;;5094810;28;20476;-64
2022/04/18 10:17:46;;;;;;;3.40;3.10;;;15.00;57.70;;;;;;5094198;28;20476;-64
2022/04/18 10:20:32;;;;;;;3.10;2.80;;;15.10;57.50;;;;;;5094697;28;20967;-63
2022/04/18 10:23:13;;;;;;;2.70;2.50;;;15.20;57.60;;;;;;5095114;28;20454;-63
2022/04/18 10:26:05;;;;;;;3.30;2.70;;;15.20;58.00;;;;;;5094939;28;20457;-64
2022/04/18 10:28:36;;;;;;;2.80;2.13;;;15.20;57.10;;;;;;5094261;28;20461;-64
2022/04/18 10:31:10;;;;;;;2.53;2.33;;;15.30;57.20;;;;;;5094723;28;20469;-64
2022/04/18 10:33:37;;;;;;;2.83;2.13;;;15.30;57.10;;;;;;5093895;28;20480;-64
2022/04/18 10:36:07;;;;;;;3.63;2.50;;;15.40;57.00;;;;;;5094247;28;20461;-64
2022/04/18 10:38:36;;;;;;;3.17;2.87;;;15.40;56.70;;;;;;5093789;28;20959;-64
2022/04/18 10:41:16;;;;;;;2.60;2.13;;;15.50;56.60;;;;;;5094199;28;20537;-63
2022/04/18 10:44:08;;;;;;;2.90;2.70;;;15.60;56.90;;;;;;5093707;28;20468;-63
2022/04/18 10:46:36;;;;;;;3.87;2.60;;;15.60;57.10;;;;;;5090460;28;21024;-63
2022/04/18 10:49:05;;;;;;;3.00;2.00;;;15.60;57.00;;;;;;5094149;28;20483;-63
2022/04/18 10:51:36;;;;;;;2.63;2.13;;;15.60;56.20;;;;;;5093619;28;20526;-63
2022/04/18 10:54:07;;;;;;;2.80;2.50;;;15.60;56.40;;;;;;5094243;28;20806;-62
2022/04/18 10:56:53;;;;;;;3.33;2.47;;;15.60;56.50;;;;;;5093467;28;20470;-63
2022/04/18 10:59:22;;;;;;;2.47;2.27;;;15.60;56.60;;;;;;5093755;28;20474;-64
2022/04/18 11:01:50;;;;;;;2.07;1.90;;;15.70;56.70;;;;;;5093329;28;20970;-64
2022/04/18 11:04:18;;;;;;;2.50;2.30;;;15.70;56.50;;;;;;5093906;28;20465;-64
2022/04/18 11:06:50;;;;;;;2.43;2.20;;;15.80;56.60;;;;;;5093432;28;20465;-63
2022/04/18 11:09:27;;;;;;;2.67;2.23;;;15.80;56.40;;;;;;5072060;28;20466;-64
2022/04/18 11:12:01;;;;;;;2.83;2.40;;;15.90;56.40;;;;;;5072937;28;20469;-63
2022/04/18 11:14:44;;;;;;;3.37;2.73;;;15.90;56.30;;;;;;5087603;28;20468;-63
2022/04/18 11:17:12;;;;;;;3.37;2.00;;;16.00;56.60;;;;;;5093593;28;20484;-64
2022/04/18 11:19:40;;;;;;;2.93;2.63;;;16.10;56.30;;;;;;5093607;28;20792;-64
2022/04/18 11:22:16;;;;;;;2.90;2.07;;;16.10;56.30;;;;;;5093386;28;20466;-64
2022/04/18 11:24:45;;;;;;;3.50;2.80;;;16.10;55.70;;;;;;5093132;28;20452;-64
2022/04/18 11:27:14;;;;;;;2.37;2.10;;;16.10;55.30;;;;;;5093497;28;20466;-64
2022/04/18 11:29:44;;;;;;;2.40;2.20;;;16.10;55.80;;;;;;5092874;28;20453;-63
2022/04/18 11:32:19;;;;;;;2.33;2.13;;;16.10;55.70;;;;;;5093326;28;20462;-64
2022/04/18 11:34:48;;;;;;;2.67;2.17;;;16.10;55.40;;;;;;5093205;28;20782;-63
2022/04/18 11:37:22;;;;;;;2.67;2.10;;;16.10;55.20;;;;;;5093273;28;20466;-63
2022/04/18 11:39:50;;;;;;;4.27;2.20;;;16.10;55.10;;;;;;5092801;28;20457;-63
2022/04/18 11:42:19;;;;;;;2.43;2.23;;;16.10;55.20;;;;;;5093295;28;20466;-64
2022/04/18 11:44:48;;;;;;;2.20;2.10;;;16.10;54.80;;;;;;5092684;28;20459;-63
2022/04/18 11:47:20;;;;;;;2.70;2.07;;;16.10;55.10;;;;;;5093025;28;20458;-63
2022/04/18 11:49:49;;;;;;;2.70;2.47;;;16.20;55.20;;;;;;5092788;28;20473;-63
2022/04/18 11:52:20;;;;;;;1.87;1.77;;;16.20;55.20;;;;;;5093081;28;20474;-64
2022/04/18 11:54:58;;;;;;;1.97;1.73;;;16.30;55.20;;;;;;5092627;28;20465;-63
2022/04/18 11:57:25;;;;;;;4.23;2.10;;;16.30;55.20;;;;;;5092853;28;20952;-63
2022/04/18 11:59:54;;;;;;;4.73;2.43;;;16.40;55.30;;;;;;5092694;28;20461;-64
2022/04/18 12:08:00;;;;;;;2.50;2.30;;;16.30;55.30;;;;;;5093208;28;20457;-64
2022/04/18 12:10:29;;;;;;;2.30;2.10;;;16.30;55.60;;;;;;5092188;28;20469;-64
2022/04/18 12:12:56;;;;;;;2.27;2.07;;;16.30;55.70;;;;;;5092924;28;20820;-63
2022/04/18 12:15:26;;;;;;;2.33;2.13;;;16.40;55.60;;;;;;5092405;28;20469;-64
2022/04/18 12:17:54;;;;;;;2.47;2.27;;;16.50;55.60;;;;;;5092758;28;20473;-63
2022/04/18 12:20:26;;;;;;;2.13;1.70;;;16.60;55.50;;;;;;5092386;28;20469;-64
2022/04/18 12:22:55;;;;;;;4.13;2.23;;;16.70;54.60;;;;;;5096879;28;20477;-64
2022/04/18 12:25:24;;;;;;;1.60;1.50;;;16.70;54.10;;;;;;5096549;28;20463;-64
2022/04/18 12:27:51;;;;;;;1.97;1.87;;;16.80;54.00;;;;;;5096783;28;20473;-63
2022/04/18 12:30:19;;;;;;;2.80;1.30;;;16.80;53.00;;;;;;5096390;28;20484;-63
2022/04/18 12:32:54;;;;;;;1.60;1.50;;;16.80;52.90;;;;;;5096660;28;20482;-63
2022/04/18 12:35:38;;;;;;;2.03;1.50;;;16.90;52.80;;;;;;5096368;28;20487;-63
2022/04/18 12:38:07;;;;;;;3.20;1.47;;;16.90;52.10;;;;;;5096810;28;20458;-63
2022/04/18 12:40:35;;;;;;;1.27;1.17;;;16.90;51.80;;;;;;5096057;28;20931;-63
2022/04/18 12:43:07;;;;;;;1.60;1.50;;;16.90;51.30;;;;;;5096657;28;20519;-63
2022/04/18 12:45:45;;;;;;;2.00;1.83;;;16.90;51.20;;;;;;5096108;28;20528;-63
2022/04/18 12:48:13;;;;;;;3.13;2.17;;;16.90;51.30;;;;;;5096003;28;20462;-63
2022/04/18 12:50:41;;;;;;;1.90;1.47;;;17.00;51.50;;;;;;5096531;28;20789;-64
2022/04/18 12:53:08;;;;;;;3.03;1.57;;;17.00;51.10;;;;;;5096582;28;20475;-64
2022/04/18 12:55:35;;;;;;;1.33;1.23;;;17.00;50.70;;;;;;5095955;28;20455;-64
2022/04/18 12:58:02;;;;;;;1.30;1.20;;;17.00;50.70;;;;;;5096413;28;20471;-64
2022/04/18 13:00:36;;;;;;;1.70;1.47;;;17.00;50.40;;;;;;5095714;28;20544;-64
2022/04/18 13:03:04;;;;;;;1.90;1.60;;;17.00;50.10;;;;;;5096279;28;20463;-63
2022/04/18 13:05:34;;;;;;;1.47;1.13;;;17.00;50.20;;;;;;5095854;28;20466;-64
2022/04/18 13:08:02;;;;;;;2.63;1.27;;;17.00;50.30;;;;;;5096111;28;20783;-64
2022/04/18 13:10:31;;;;;;;1.40;1.30;;;17.00;50.40;;;;;;5095599;28;20455;-64
2022/04/18 13:13:05;;;;;;;1.90;1.33;;;17.00;49.70;;;;;;5096140;28;20465;-64
2022/04/18 13:15:32;;;;;;;1.97;1.40;;;17.00;49.60;;;;;;5095538;28;20473;-63
2022/04/18 13:18:01;;;;;;;2.13;1.37;;;17.00;49.70;;;;;;5095815;28;20472;-63
2022/04/18 13:20:29;;;;;;;1.40;1.30;;;17.00;49.70;;;;;;5095565;28;20461;-63